Time;durP1;ratioP1;P1;durP2;ratioP2;P2;SDS_P1;SDS_P2;PMS_P1;PMS_P2;Temp;Humidity;BMP_temperature;BMP_pressure;BME280_temperature;BME280_humidity;BME280_pressure;Samples;Min_cycle;Max_cycle;Signal;HPM_P1;HPM_P2
2021/08/05 00:01:42;;;;;;;2.47;1.30;;;;;;;13.34;62.66;101082.25;5029481;28;20223;-67
2021/08/05 00:04:13;;;;;;;2.63;1.47;;;;;;;13.29;63.03;101070.94;5030721;28;20197;-68
2021/08/05 00:06:41;;;;;;;2.33;1.40;;;;;;;13.29;63.31;101079.03;5030127;28;20677;-68
2021/08/05 00:09:09;;;;;;;1.53;1.13;;;;;;;13.07;63.43;101055.44;5031237;28;20203;-67
2021/08/05 00:11:37;;;;;;;1.20;1.10;;;;;;;12.90;63.25;101022.63;5028859;28;20248;-67
2021/08/05 00:14:06;;;;;;;1.60;1.30;;;;;;;13.15;63.49;101073.75;5029694;28;20201;-67
2021/08/05 00:16:34;;;;;;;1.40;1.30;;;;;;;13.09;62.75;101063.41;5026911;28;20327;-67
2021/08/05 00:19:04;;;;;;;1.40;1.30;;;;;;;13.11;63.65;101066.00;5029360;28;20228;-67
2021/08/05 00:21:32;;;;;;;2.70;1.40;;;;;;;13.06;63.71;101075.28;5026981;28;20686;-67
2021/08/05 00:24:01;;;;;;;2.70;1.40;;;;;;;13.06;63.32;101078.00;5044444;28;20205;-68
2021/08/05 00:26:29;;;;;;;1.73;1.37;;;;;;;13.05;63.46;101078.09;5028389;28;20214;-68
2021/08/05 00:28:57;;;;;;;1.30;1.20;;;;;;;13.05;63.37;101081.66;5029817;28;20834;-67
2021/08/05 00:31:25;;;;;;;2.77;1.20;;;;;;;13.01;63.34;101090.09;5027996;28;20200;-67
2021/08/05 00:33:53;;;;;;;1.17;1.03;;;;;;;12.90;63.15;101074.69;5030300;28;20198;-67
2021/08/05 00:36:23;;;;;;;1.27;1.10;;;;;;;12.85;63.23;101070.59;5028483;28;20203;-67
2021/08/05 00:38:51;;;;;;;1.57;1.27;;;;;;;12.88;62.95;101083.88;5038663;28;20216;-67
2021/08/05 00:41:19;;;;;;;1.37;1.10;;;;;;;12.81;63.00;101080.72;5028118;28;20680;-67
2021/08/05 00:43:48;;;;;;;3.47;1.53;;;;;;;12.79;63.60;101087.19;5020047;28;20209;-67
2021/08/05 00:46:18;;;;;;;2.33;1.40;;;;;;;12.77;62.94;101087.31;5029936;28;20699;-67
2021/08/05 00:48:47;;;;;;;1.23;1.13;;;;;;;12.66;63.34;101069.22;5017623;28;20214;-67
2021/08/05 00:51:15;;;;;;;1.77;1.20;;;;;;;12.70;62.86;101076.13;5042665;28;20204;-68
2021/08/05 00:53:47;;;;;;;1.60;1.30;;;;;;;12.64;63.91;101079.25;5043304;28;20210;-68
2021/08/05 00:56:15;;;;;;;7.53;1.30;;;;;;;12.66;63.70;101085.41;5028714;28;20672;-67
2021/08/05 00:58:43;;;;;;;2.20;1.40;;;;;;;12.67;63.31;101084.41;5027059;28;20204;-67
2021/08/05 01:01:16;;;;;;;1.20;1.10;;;;;;;12.66;62.70;101077.31;5025228;28;20729;-68
2021/08/05 01:03:50;;;;;;;1.50;1.17;;;;;;;12.58;63.33;101071.59;5039707;28;20204;-68
2021/08/05 01:06:33;;;;;;;1.80;1.20;;;;;;;12.55;62.91;101066.44;5022026;28;20210;-67
2021/08/05 01:09:08;;;;;;;1.50;1.20;;;;;;;12.41;63.19;101050.38;5022604;28;20717;-66
2021/08/05 01:11:45;;;;;;;1.57;1.30;;;;;;;12.52;62.93;101074.72;5028394;28;20559;-67
2021/08/05 01:14:16;;;;;;;1.20;1.10;;;;;;;12.44;63.57;101067.19;5027314;28;20556;-67
2021/08/05 01:16:48;;;;;;;1.50;1.10;;;;;;;12.37;63.65;101067.72;5028008;28;20225;-67
2021/08/05 01:19:29;;;;;;;1.73;1.20;;;;;;;12.33;63.71;101069.78;5028315;28;20240;-67
2021/08/05 01:22:05;;;;;;;1.33;1.20;;;;;;;12.31;63.55;101073.56;5028628;28;20399;-68
2021/08/05 01:24:42;;;;;;;1.30;1.20;;;;;;;12.30;63.20;101075.38;5029787;28;21105;-67
2021/08/05 01:27:15;;;;;;;4.30;1.00;;;;;;;12.25;63.89;101065.91;5028640;28;20253;-67
2021/08/05 01:29:45;;;;;;;1.13;1.00;;;;;;;12.24;63.36;101073.09;5045588;28;20329;-68
2021/08/05 01:32:14;;;;;;;1.50;1.40;;;;;;;12.20;64.07;101074.28;5027944;28;20269;-68
2021/08/05 01:34:46;;;;;;;1.70;1.20;;;;;;;12.16;63.75;101077.28;5028835;28;20210;-68
2021/08/05 01:37:17;;;;;;;2.90;1.13;;;;;;;12.11;63.78;101074.91;5021491;28;20207;-67
2021/08/05 01:39:45;;;;;;;1.17;0.90;;;;;;;12.11;64.21;101073.09;5016999;28;20222;-67
2021/08/05 01:42:18;;;;;;;1.77;1.30;;;;;;;11.94;63.67;101045.59;5028638;28;20204;-68
2021/08/05 01:44:49;;;;;;;1.70;1.07;;;;;;;12.11;63.64;101080.31;5029247;28;20202;-67
2021/08/05 01:47:19;;;;;;;1.40;1.30;;;;;;;12.08;63.85;101086.75;5013558;28;20207;-67
2021/08/05 01:49:49;;;;;;;2.47;1.30;;;;;;;11.80;63.61;101038.47;5021970;28;20202;-67
2021/08/05 01:52:19;;;;;;;2.10;1.27;;;;;;;12.03;63.78;101078.13;5030684;28;20283;-66
2021/08/05 01:54:47;;;;;;;1.60;1.33;;;;;;;12.00;63.54;101078.34;5029412;28;20334;-66
2021/08/05 01:57:17;;;;;;;1.67;1.10;;;;;;;11.93;64.54;101079.72;5042788;28;20209;-67
2021/08/05 01:59:45;;;;;;;1.77;1.37;;;;;;;11.90;63.80;101074.53;5028564;28;20210;-67
2021/08/05 02:02:14;;;;;;;1.20;1.10;;;;;;;11.49;63.37;101005.53;5029202;28;20207;-67
2021/08/05 02:04:56;;;;;;;1.90;1.30;;;;;;;11.94;63.51;101080.56;5029053;28;20684;-67
2021/08/05 02:07:27;;;;;;;1.40;1.30;;;;;;;11.89;63.72;101078.19;5042164;28;20628;-67
2021/08/05 02:10:03;;;;;;;1.37;1.10;;;;;;;11.86;64.29;101078.41;5044918;28;20268;-67
2021/08/05 02:12:36;;;;;;;1.70;1.23;;;;;;;11.85;63.89;101086.59;5045604;28;20210;-67
2021/08/05 02:15:07;;;;;;;1.20;1.10;;;;;;;11.85;63.94;101078.53;5028278;28;20282;-67
2021/08/05 02:17:38;;;;;;;1.40;1.17;;;;;;;11.82;63.61;101071.53;5041698;28;20211;-68
2021/08/05 02:20:08;;;;;;;4.67;1.40;;;;;;;11.74;63.67;101071.16;5044455;28;20242;-68
2021/08/05 02:22:40;;;;;;;1.53;1.27;;;;;;;11.56;63.65;101037.41;5028541;28;20306;-67
2021/08/05 02:25:10;;;;;;;1.40;1.30;;;;;;;11.79;63.70;101087.88;5029899;28;20209;-67
2021/08/05 02:27:41;;;;;;;1.23;1.10;;;;;;;11.79;63.94;101083.34;5045117;28;20266;-67
2021/08/05 02:30:11;;;;;;;1.00;1.00;;;;;;;11.78;64.18;101083.47;5044939;28;20248;-68
2021/08/05 02:32:41;;;;;;;1.10;1.00;;;;;;;11.78;64.08;101086.16;5029518;28;20210;-68
2021/08/05 02:35:12;;;;;;;1.20;1.07;;;;;;;11.75;64.12;101094.41;5028274;28;20217;-68
2021/08/05 02:37:40;;;;;;;2.17;1.37;;;;;;;11.72;63.59;101095.47;5028340;28;20302;-67
2021/08/05 02:40:11;;;;;;;2.97;1.20;;;;;;;11.62;63.66;101082.72;5043845;28;20231;-66
2021/08/05 02:42:41;;;;;;;1.47;1.27;;;;;;;11.72;63.93;101090.09;5028617;28;20199;-67
2021/08/05 02:45:10;;;;;;;2.30;1.50;;;;;;;11.69;64.02;101089.44;5044799;28;20216;-67
2021/08/05 02:47:39;;;;;;;2.80;1.60;;;;;;;11.62;63.52;101078.19;5029439;28;20202;-67
2021/08/05 02:50:10;;;;;;;2.70;1.70;;;;;;;11.65;63.74;101098.69;5030057;28;20576;-67
2021/08/05 02:52:40;;;;;;;4.77;1.40;;;;;;;11.56;64.38;101096.56;5029497;28;20276;-67
2021/08/05 02:55:09;;;;;;;1.47;1.23;;;;;;;11.51;64.34;101091.50;5029572;28;20230;-67
2021/08/05 02:57:38;;;;;;;1.27;1.17;;;;;;;11.51;63.99;101096.88;5028163;28;20204;-68
2021/08/05 03:00:09;;;;;;;1.30;1.30;;;;;;;11.52;64.32;101096.78;5045047;28;20215;-68
2021/08/05 03:02:37;;;;;;;2.23;1.10;;;;;;;11.52;64.09;101094.09;5027982;28;20294;-68
2021/08/05 03:05:10;;;;;;;1.37;1.20;;;;;;;11.25;64.14;101050.19;5029619;28;20209;-68
2021/08/05 03:07:38;;;;;;;1.00;1.00;;;;;;;11.31;64.25;101048.91;5029410;28;20671;-67
2021/08/05 03:10:08;;;;;;;2.13;1.20;;;;;;;11.48;64.82;101089.88;5029508;28;20616;-67
2021/08/05 03:12:36;;;;;;;1.43;1.30;;;;;;;11.46;64.33;101094.50;5029864;28;20750;-68
2021/08/05 03:15:06;;;;;;;2.10;1.30;;;;;;;11.42;64.82;101082.22;5029121;28;20203;-68
2021/08/05 03:17:37;;;;;;;1.93;1.20;;;;;;;11.49;64.36;101086.22;5029650;28;20218;-68
2021/08/05 03:20:07;;;;;;;0.97;0.90;;;;;;;11.50;64.14;101084.41;5041351;28;20201;-68
2021/08/05 03:22:36;;;;;;;5.60;1.20;;;;;;;11.47;64.38;101087.28;5021255;28;20212;-68
2021/08/05 03:25:05;;;;;;;3.00;1.30;;;;;;;11.45;64.64;101086.53;5029090;28;20210;-68
2021/08/05 03:27:33;;;;;;;1.00;1.00;;;;;;;11.45;64.64;101083.84;5028996;28;20210;-68
2021/08/05 03:30:01;;;;;;;1.10;1.00;;;;;;;11.49;64.70;101082.69;5028964;28;21920;-68
2021/08/05 03:32:29;;;;;;;1.30;1.20;;;;;;;11.46;64.58;101082.88;5029412;28;20199;-68
2021/08/05 03:34:59;;;;;;;1.20;1.10;;;;;;;11.54;65.59;101085.06;5027593;28;20211;-68
2021/08/05 03:37:27;;;;;;;1.27;1.17;;;;;;;11.64;66.02;101081.69;5029223;28;20577;-68
2021/08/05 03:39:55;;;;;;;1.10;1.00;;;;;;;11.78;64.88;101081.63;5028967;28;20215;-68
2021/08/05 03:42:24;;;;;;;1.30;0.97;;;;;;;11.79;64.95;101072.59;5029181;28;20718;-68
2021/08/05 03:44:52;;;;;;;1.80;1.20;;;;;;;11.89;64.52;101075.50;5016271;28;20208;-68
2021/08/05 03:47:20;;;;;;;1.33;1.17;;;;;;;11.96;64.29;101074.16;5028334;28;20555;-67
2021/08/05 03:49:48;;;;;;;1.10;1.00;;;;;;;11.99;65.03;101079.31;5029181;28;20655;-67
2021/08/05 03:52:18;;;;;;;1.60;1.23;;;;;;;12.01;65.79;101080.09;5028862;28;20210;-67
2021/08/05 03:55:01;;;;;;;1.90;1.10;;;;;;;12.06;65.37;101075.25;5028978;28;20207;-67
2021/08/05 03:57:29;;;;;;;1.10;1.00;;;;;;;11.95;64.94;101041.97;5028810;28;20203;-67
2021/08/05 03:59:58;;;;;;;1.13;1.03;;;;;;;12.20;64.80;101079.66;5029347;28;20193;-67
2021/08/05 04:02:26;;;;;;;2.03;1.10;;;;;;;11.98;65.32;101045.31;5028845;28;20642;-67
2021/08/05 04:04:54;;;;;;;1.40;1.10;;;;;;;12.26;65.73;101078.41;5030405;28;20320;-67
2021/08/05 04:07:23;;;;;;;1.13;1.10;;;;;;;12.34;65.20;101076.88;5032131;28;20199;-67
2021/08/05 04:09:51;;;;;;;1.10;1.10;;;;;;;12.32;66.00;101076.13;5032552;28;20228;-67
2021/08/05 04:12:20;;;;;;;1.30;1.20;;;;;;;12.30;67.44;101079.91;5032528;28;20205;-67
2021/08/05 04:14:48;;;;;;;1.60;1.20;;;;;;;12.25;66.68;101063.22;5032674;28;20203;-67
2021/08/05 04:17:16;;;;;;;1.50;1.20;;;;;;;12.12;67.04;101034.44;5032540;28;20196;-67
2021/08/05 04:19:44;;;;;;;1.60;1.30;;;;;;;12.39;67.28;101079.25;5032192;28;20649;-67
2021/08/05 04:22:17;;;;;;;1.40;1.30;;;;;;;12.06;68.79;101025.91;5032534;28;20222;-68
2021/08/05 04:24:46;;;;;;;1.40;1.20;;;;;;;12.41;68.58;101072.78;5032053;28;20696;-68
2021/08/05 04:27:14;;;;;;;3.47;1.20;;;;;;;12.36;69.80;101068.69;5032414;28;20194;-68
2021/08/05 04:29:42;;;;;;;4.87;1.37;;;;;;;12.49;69.10;101074.94;5031929;28;20710;-67
2021/08/05 04:32:10;;;;;;;1.40;1.30;;;;;;;12.61;67.93;101084.88;5032357;28;20208;-68
2021/08/05 04:34:38;;;;;;;3.47;1.40;;;;;;;12.74;67.80;101090.22;5032134;28;20206;-68
2021/08/05 04:37:07;;;;;;;1.37;1.27;;;;;;;12.75;68.38;101073.09;5032099;28;20573;-68
2021/08/05 04:39:35;;;;;;;2.17;1.10;;;;;;;12.80;68.76;101078.16;5032023;28;20208;-67
2021/08/05 04:42:04;;;;;;;2.60;1.50;;;;;;;12.80;69.41;101070.91;5032231;28;20674;-67
2021/08/05 04:44:32;;;;;;;2.07;1.30;;;;;;;12.89;69.40;101075.66;5031713;28;20205;-67
2021/08/05 04:47:01;;;;;;;1.80;1.50;;;;;;;12.97;69.65;101078.66;5031810;28;20201;-67
2021/08/05 04:49:29;;;;;;;1.60;1.20;;;;;;;13.05;70.11;101075.41;5031822;28;20594;-67
2021/08/05 04:51:57;;;;;;;1.70;1.60;;;;;;;12.97;70.47;101054.41;5044202;28;20206;-67
2021/08/05 04:54:26;;;;;;;3.40;1.37;;;;;;;13.25;69.63;101080.25;5029368;28;20210;-67
2021/08/05 04:56:54;;;;;;;3.27;1.30;;;;;;;13.32;70.22;101081.50;5031561;28;20706;-66
2021/08/05 04:59:23;;;;;;;2.17;1.30;;;;;;;13.46;70.09;101082.31;5031226;28;20670;-67
2021/08/05 05:01:52;;;;;;;1.70;1.43;;;;;;;13.57;70.59;101082.38;5052893;28;20235;-67
2021/08/05 05:04:20;;;;;;;1.40;1.30;;;;;;;13.70;69.97;101082.31;5031308;28;20208;-67
2021/08/05 05:06:49;;;;;;;1.50;1.40;;;;;;;13.84;70.45;101085.72;5031737;28;20212;-67
2021/08/05 05:09:17;;;;;;;1.60;1.30;;;;;;;13.99;70.27;101083.66;5031823;28;20769;-68
2021/08/05 05:11:45;;;;;;;1.33;1.27;;;;;;;14.15;70.93;101088.78;5031392;28;20204;-68
2021/08/05 05:14:13;;;;;;;2.30;1.50;;;;;;;14.32;70.91;101085.59;5031654;28;20203;-68
2021/08/05 05:16:42;;;;;;;1.47;1.37;;;;;;;14.49;71.18;101081.63;5030091;28;20392;-68
2021/08/05 05:19:11;;;;;;;1.50;1.20;;;;;;;14.68;71.73;101086.41;5030986;28;20575;-67
2021/08/05 05:21:39;;;;;;;1.80;1.10;;;;;;;14.86;72.67;101085.81;5027894;28;20219;-67
2021/08/05 05:24:07;;;;;;;1.30;1.20;;;;;;;15.08;72.56;101084.97;5029567;28;20220;-67
2021/08/05 05:26:52;;;;;;;1.37;1.27;;;;;;;15.36;72.92;101083.56;5029476;28;20540;-67
2021/08/05 05:29:21;;;;;;;1.30;1.20;;;;;;;15.61;74.10;101079.72;5029881;28;20601;-67
2021/08/05 05:31:50;;;;;;;1.23;1.13;;;;;;;15.89;74.05;101072.81;5028177;28;20692;-67
2021/08/05 05:34:18;;;;;;;2.30;1.33;;;;;;;16.18;73.75;101077.59;5029880;28;20206;-67
2021/08/05 05:36:47;;;;;;;1.63;1.47;;;;;;;16.41;74.29;101068.34;5027873;28;20202;-68
2021/08/05 05:39:15;;;;;;;2.87;1.53;;;;;;;16.71;73.56;101075.69;5029464;28;20203;-67
2021/08/05 05:41:43;;;;;;;2.37;1.30;;;;;;;17.02;74.26;101085.53;5027733;28;20215;-68
2021/08/05 05:44:11;;;;;;;1.87;1.27;;;;;;;17.30;74.27;101081.19;5017121;28;20546;-67
2021/08/05 05:46:39;;;;;;;5.13;1.47;;;;;;;17.57;73.38;101079.66;5029448;28;20743;-67
2021/08/05 05:49:09;;;;;;;1.73;1.53;;;;;;;17.81;73.59;101079.31;5029000;28;20211;-68
2021/08/05 05:51:37;;;;;;;3.20;1.43;;;;;;;18.05;73.20;101068.84;5042459;28;20591;-67
2021/08/05 05:54:06;;;;;;;1.83;1.30;;;;;;;18.37;72.20;101084.84;5011914;28;20742;-68
2021/08/05 05:56:34;;;;;;;1.40;1.30;;;;;;;18.63;72.03;101084.22;5030610;28;20203;-68
2021/08/05 05:59:02;;;;;;;1.50;1.40;;;;;;;18.89;71.30;101085.28;5030299;28;20230;-67
2021/08/05 06:01:30;;;;;;;1.30;1.20;;;;;;;19.05;70.42;101085.53;5016550;28;20187;-67
2021/08/05 06:03:59;;;;;;;1.80;1.20;;;;;;;19.14;69.76;101075.59;5018072;28;20699;-67
2021/08/05 06:06:28;;;;;;;1.53;1.43;;;;;;;19.29;69.04;101082.25;5028831;28;20203;-67
2021/08/05 06:08:59;;;;;;;1.67;1.30;;;;;;;19.38;69.17;101056.81;5030328;28;20206;-67
2021/08/05 06:11:27;;;;;;;5.10;1.10;;;;;;;19.93;68.58;101083.13;5045363;28;20229;-67
2021/08/05 06:13:56;;;;;;;3.73;1.40;;;;;;;20.16;66.38;101077.00;5030261;28;20209;-67
2021/08/05 06:16:24;;;;;;;2.73;1.20;;;;;;;20.43;65.34;101083.41;5029750;28;20733;-67
2021/08/05 06:18:53;;;;;;;1.17;1.00;;;;;;;20.86;62.76;101093.41;5030182;28;20286;-67
2021/08/05 06:21:21;;;;;;;1.47;1.00;;;;;;;21.19;61.86;101083.50;5029965;28;20191;-67
2021/08/05 06:23:50;;;;;;;2.83;1.30;;;;;;;21.53;60.77;101088.09;5030222;28;20611;-67
2021/08/05 06:26:21;;;;;;;0.90;0.90;;;;;;;21.57;60.40;101089.47;5030091;28;20205;-68
2021/08/05 06:28:49;;;;;;;1.43;1.00;;;;;;;21.94;59.87;101092.59;5029591;28;20560;-68
2021/08/05 06:31:18;;;;;;;1.63;1.10;;;;;;;22.31;58.61;101099.50;5030184;28;20203;-68
2021/08/05 06:33:51;;;;;;;2.43;1.23;;;;;;;22.69;56.20;101099.81;5029824;28;20655;-68
2021/08/05 06:36:19;;;;;;;1.37;1.00;;;;;;;23.05;54.55;101103.84;5029974;28;20671;-68
2021/08/05 06:38:47;;;;;;;1.80;1.00;;;;;;;23.43;54.88;101101.31;5029590;28;20277;-68
2021/08/05 06:41:16;;;;;;;3.40;1.37;;;;;;;23.66;53.80;101106.88;5029688;28;20194;-68
2021/08/05 06:43:45;;;;;;;1.10;1.03;;;;;;;23.75;54.17;101094.81;5029622;28;20281;-68
2021/08/05 06:46:13;;;;;;;1.73;1.10;;;;;;;24.12;52.92;101105.00;5029802;28;20210;-68
2021/08/05 06:48:41;;;;;;;1.07;1.00;;;;;;;24.45;52.36;101109.22;5029322;28;20328;-67
2021/08/05 06:51:10;;;;;;;1.20;1.10;;;;;;;24.51;51.54;101104.03;5029910;28;20569;-68
2021/08/05 06:53:38;;;;;;;1.20;1.10;;;;;;;24.81;51.54;101113.19;5029142;28;20213;-67
2021/08/05 06:56:06;;;;;;;1.30;1.20;;;;;;;24.58;50.05;101081.13;5025814;28;20261;-67
2021/08/05 06:58:36;;;;;;;1.10;1.00;;;;;;;25.05;49.54;101116.53;5019562;28;20206;-65
2021/08/05 07:01:04;;;;;;;1.00;0.90;;;;;;;25.22;48.08;101110.84;5028176;28;20218;-68
2021/08/05 07:03:32;;;;;;;2.00;1.10;;;;;;;25.19;47.70;101108.50;5020852;28;20228;-68
2021/08/05 07:06:01;;;;;;;1.17;0.90;;;;;;;25.42;48.64;101111.13;5024046;28;20199;-67
2021/08/05 07:08:29;;;;;;;0.80;0.80;;;;;;;25.68;47.86;101109.56;5029477;28;20750;-67
2021/08/05 07:10:57;;;;;;;3.15;1.23;;;;;;;25.63;47.94;101108.41;5029524;28;20642;-67
2021/08/05 07:13:25;;;;;;;1.10;1.00;;;;;;;25.77;48.32;101109.47;5029377;28;20217;-67
2021/08/05 07:15:54;;;;;;;3.47;1.13;;;;;;;25.52;48.09;101079.50;5029426;28;20202;-68
2021/08/05 07:18:23;;;;;;;2.47;1.20;;;;;;;25.53;48.30;101107.88;5028921;28;20659;-67
2021/08/05 07:20:51;;;;;;;2.55;0.80;;;;;;;25.40;49.00;101111.28;5029144;28;20261;-68
2021/08/05 07:23:19;;;;;;;2.92;1.02;;;;;;;25.43;48.27;101110.94;5029330;28;20243;-67
2021/08/05 07:25:47;;;;;;;1.20;1.10;;;;;;;25.48;48.79;101083.69;5029204;28;20653;-67
2021/08/05 07:28:15;;;;;;;1.20;1.10;;;;;;;25.71;48.05;101110.22;5029458;28;20215;-67
2021/08/05 07:30:44;;;;;;;2.70;1.10;;;;;;;25.39;47.89;101107.69;5029323;28;20239;-67
2021/08/05 07:33:14;;;;;;;0.90;0.90;;;;;;;24.76;47.56;101108.22;5029029;28;20190;-67
2021/08/05 07:35:42;;;;;;;3.63;1.20;;;;;;;24.98;48.49;101109.19;5027921;28;20214;-67
2021/08/05 07:38:10;;;;;;;1.80;1.23;;;;;;;25.01;48.29;101112.47;5030728;28;20678;-68
2021/08/05 07:40:38;;;;;;;2.70;1.17;;;;;;;25.05;48.21;101107.44;5016078;28;20237;-67
2021/08/05 07:43:06;;;;;;;1.03;1.00;;;;;;;24.87;47.53;101102.28;5032952;28;20574;-67
2021/08/05 07:45:34;;;;;;;1.47;1.23;;;;;;;24.67;48.94;101082.75;5033003;28;20244;-65
2021/08/05 07:48:03;;;;;;;1.33;0.95;;;;;;;24.62;48.15;101103.56;5048032;28;20210;-66
2021/08/05 07:50:33;;;;;;;3.03;1.23;;;;;;;24.20;48.42;101066.53;5019303;28;20581;-67
2021/08/05 07:53:03;;;;;;;2.37;1.10;;;;;;;24.28;49.22;101101.31;5018980;28;20675;-66
2021/08/05 07:55:31;;;;;;;2.50;1.00;;;;;;;24.39;48.74;101107.22;5032626;28;20312;-68
2021/08/05 07:57:59;;;;;;;2.17;1.30;;;;;;;24.30;49.55;101088.25;5032092;28;20655;-70
2021/08/05 08:00:28;;;;;;;1.57;1.30;;;;;;;24.61;48.60;101099.13;5022014;28;20211;-69
2021/08/05 08:02:56;;;;;;;2.23;1.07;;;;;;;24.73;48.10;101100.38;5029616;28;20211;-70
2021/08/05 08:05:24;;;;;;;2.63;1.33;;;;;;;24.85;47.07;101103.53;5031243;28;20333;-68
2021/08/05 08:07:55;;;;;;;3.03;1.10;;;;;;;24.48;48.25;101096.16;5029975;28;20566;-66
2021/08/05 08:10:23;;;;;;;3.13;1.30;;;;;;;24.69;48.86;101101.78;5029054;28;20252;-68
2021/08/05 08:12:51;;;;;;;1.53;1.10;;;;;;;24.62;47.63;101095.34;5029162;28;20647;-66
2021/08/05 08:15:22;;;;;;;4.33;1.10;;;;;;;24.60;48.49;101094.69;5028128;28;20203;-66
2021/08/05 08:17:51;;;;;;;1.00;1.00;;;;;;;24.75;47.43;101106.53;5028140;28;20205;-66
2021/08/05 08:20:19;;;;;;;3.45;1.30;;;;;;;24.73;47.11;101101.22;5028717;28;20190;-68
2021/08/05 08:22:47;;;;;;;5.63;1.30;;;;;;;24.53;46.83;101094.56;5029493;28;20829;-68
2021/08/05 08:25:17;;;;;;;1.07;1.07;;;;;;;24.86;46.34;101100.59;5029091;28;20631;-67
2021/08/05 08:27:46;;;;;;;2.20;1.10;;;;;;;24.93;46.81;101095.19;5027866;28;20190;-68
2021/08/05 08:30:16;;;;;;;1.10;1.00;;;;;;;25.77;45.84;101090.22;5027878;28;20273;-67
2021/08/05 08:32:47;;;;;;;1.58;1.00;;;;;;;26.49;43.61;101092.84;5027848;28;20663;-68
2021/08/05 08:35:15;;;;;;;1.73;1.27;;;;;;;26.75;42.34;101090.28;5026654;28;20192;-66
2021/08/05 08:37:43;;;;;;;1.08;1.00;;;;;;;26.97;42.30;101085.56;5028680;28;20274;-66
2021/08/05 08:40:14;;;;;;;3.50;1.20;;;;;;;26.80;41.78;101087.75;5021189;28;20671;-67
2021/08/05 08:42:44;;;;;;;1.25;1.20;;;;;;;26.81;41.79;101081.19;5029297;28;20413;-67
2021/08/05 08:45:15;;;;;;;1.00;1.00;;;;;;;26.30;42.57;101077.78;5030003;28;20225;-66
2021/08/05 08:47:52;;;;;;;2.30;1.10;;;;;;;26.54;43.00;101093.06;5027499;28;20570;-66
2021/08/05 08:50:25;;;;;;;10.75;1.02;;;;;;;27.26;41.30;101087.22;5026701;28;20252;-67
2021/08/05 08:52:56;;;;;;;1.00;1.00;;;;;;;27.15;40.69;101098.81;5028705;28;20636;-66
2021/08/05 08:55:25;;;;;;;1.00;0.77;;;;;;;26.04;41.44;101059.16;5028850;28;20198;-66
2021/08/05 08:57:57;;;;;;;1.05;0.95;;;;;;;25.92;41.56;101091.00;5025230;28;20207;-67
2021/08/05 09:00:25;;;;;;;0.90;0.90;;;;;;;26.27;41.77;101090.06;5028289;28;20202;-66
2021/08/05 09:02:53;;;;;;;1.58;1.10;;;;;;;26.48;41.71;101085.63;5027391;28;20207;-66
2021/08/05 09:05:22;;;;;;;1.27;1.00;;;;;;;27.31;41.16;101092.97;5025692;28;20219;-66
2021/08/05 09:07:50;;;;;;;1.80;1.00;;;;;;;27.68;40.43;101054.94;5025366;28;20714;-66
2021/08/05 09:10:19;;;;;;;0.90;0.90;;;;;;;27.82;39.09;101089.78;5029891;28;22307;-65
2021/08/05 09:12:54;;;;;;;0.98;0.90;;;;;;;27.78;38.25;101044.31;5029319;28;20702;-66
2021/08/05 09:15:37;;;;;;;2.03;0.98;;;;;;;27.63;39.25;101087.84;5027133;28;20596;-66
2021/08/05 09:18:24;;;;;;;1.10;1.00;;;;;;;27.29;39.66;101073.03;5024976;28;20203;-66
2021/08/05 09:21:12;;;;;;;1.27;1.00;;;;;;;27.09;39.65;101081.19;5025903;28;20204;-66
2021/08/05 09:23:48;;;;;;;1.02;1.02;;;;;;;26.57;40.66;101078.91;5021168;28;20223;-65
2021/08/05 09:26:34;;;;;;;1.20;1.10;;;;;;;26.58;40.58;101083.34;5026220;28;20202;-65
2021/08/05 09:29:10;;;;;;;2.58;1.10;;;;;;;26.22;42.25;101076.03;5027978;28;20226;-66
2021/08/05 09:31:42;;;;;;;0.93;0.93;;;;;;;26.18;41.83;101074.72;5029588;28;20216;-66
2021/08/05 09:34:12;;;;;;;1.40;1.10;;;;;;;26.13;43.41;101070.88;5027859;28;20206;-65
2021/08/05 09:36:41;;;;;;;1.02;0.95;;;;;;;26.53;41.81;101077.59;5026015;28;20222;-65
2021/08/05 09:39:18;;;;;;;1.15;1.05;;;;;;;26.20;42.10;101082.78;5025963;28;20205;-66
2021/08/05 09:41:59;;;;;;;1.33;1.00;;;;;;;26.76;41.65;101083.72;5022599;28;20206;-66
2021/08/05 09:44:42;;;;;;;2.65;1.05;;;;;;;26.86;40.41;101086.09;5029612;28;20226;-66
2021/08/05 09:47:12;;;;;;;1.83;1.15;;;;;;;26.38;40.43;101088.72;5029115;28;20213;-67
2021/08/05 09:49:41;;;;;;;0.90;0.90;;;;;;;26.27;40.98;101089.22;5029044;28;20198;-67
2021/08/05 09:52:10;;;;;;;2.22;0.95;;;;;;;25.90;41.35;101093.09;5029446;28;20203;-67
2021/08/05 09:54:41;;;;;;;0.98;0.90;;;;;;;25.99;41.70;101086.41;5024019;28;20203;-67
2021/08/05 09:57:12;;;;;;;1.33;1.20;;;;;;;25.50;42.08;101070.59;5030496;28;20267;-67
2021/08/05 09:59:58;;;;;;;2.05;1.15;;;;;;;24.96;42.62;101084.66;5017861;28;20202;-67
2021/08/05 10:02:43;;;;;;;1.00;0.90;;;;;;;24.30;43.78;101083.63;5018477;28;20210;-68
2021/08/05 10:05:12;;;;;;;1.27;1.08;;;;;;;24.00;44.14;101079.03;5027350;28;20214;-67
2021/08/05 10:07:42;;;;;;;1.00;0.97;;;;;;;23.71;44.93;101086.09;5028988;28;20208;-67
2021/08/05 10:10:12;;;;;;;1.23;0.90;;;;;;;23.56;45.20;101090.63;5019122;28;20199;-69
2021/08/05 10:12:41;;;;;;;1.17;1.07;;;;;;;23.39;45.64;101088.97;5018855;28;20294;-68
2021/08/05 10:15:13;;;;;;;1.00;1.00;;;;;;;23.14;46.52;101086.34;5018248;28;20213;-68
2021/08/05 10:17:42;;;;;;;0.90;0.90;;;;;;;22.70;46.86;101055.81;5024312;28;20202;-68
2021/08/05 10:20:13;;;;;;;1.13;1.03;;;;;;;22.78;47.54;101090.53;5028471;28;20191;-67
2021/08/05 10:22:42;;;;;;;1.63;1.20;;;;;;;22.50;47.22;101077.25;5041486;28;20655;-67
2021/08/05 10:25:13;;;;;;;0.90;0.90;;;;;;;22.39;48.03;101083.09;5025392;28;20218;-68
2021/08/05 10:27:43;;;;;;;1.20;1.10;;;;;;;22.17;48.26;101081.03;5028556;28;20678;-67
2021/08/05 10:30:15;;;;;;;1.87;1.10;;;;;;;22.08;48.09;101085.66;5026638;28;20333;-66
2021/08/05 10:32:43;;;;;;;1.00;1.00;;;;;;;22.01;48.61;101071.75;5026765;28;20674;-66
2021/08/05 10:35:13;;;;;;;2.53;1.30;;;;;;;22.08;48.14;101073.84;5026854;28;20636;-69
2021/08/05 10:37:41;;;;;;;1.47;0.90;;;;;;;21.96;48.08;101071.41;5027321;28;20663;-68
2021/08/05 10:40:13;;;;;;;0.83;0.67;;;;;;;22.22;47.99;101073.16;5027333;28;20717;-69
2021/08/05 10:42:43;;;;;;;0.90;0.90;;;;;;;22.24;47.42;101084.78;5028255;28;20203;-68
2021/08/05 10:45:15;;;;;;;0.90;0.90;;;;;;;21.92;47.46;101039.94;5026763;28;20737;-68
2021/08/05 10:47:46;;;;;;;1.53;1.10;;;;;;;21.70;47.49;101035.13;5023749;28;20205;-68
2021/08/05 10:50:18;;;;;;;2.70;1.00;;;;;;;22.02;47.07;101078.06;5026758;28;20256;-68
2021/08/05 10:52:52;;;;;;;1.27;1.00;;;;;;;21.76;47.56;101072.78;5026788;28;20668;-69
2021/08/05 10:55:30;;;;;;;1.00;1.00;;;;;;;21.73;48.99;101081.28;5026446;28;20194;-70
2021/08/05 10:58:28;;;;;;;1.10;0.80;;;;;;;21.67;48.22;101073.75;5024170;28;20194;-70
2021/08/05 11:01:04;;;;;;;0.97;0.90;;;;;;;21.82;49.06;101072.09;5016390;28;20210;-70
2021/08/05 11:03:44;;;;;;;0.80;0.80;;;;;;;21.96;48.86;101073.28;5025764;28;20198;-70
2021/08/05 11:06:32;;;;;;;1.07;0.97;;;;;;;21.86;48.40;101070.72;5026786;28;20218;-70
2021/08/05 11:09:34;;;;;;;1.30;1.20;;;;;;;21.68;49.45;101061.78;5028317;28;20281;-67
2021/08/05 11:12:38;;;;;;;2.33;1.17;;;;;;;21.85;48.81;101071.75;4989034;28;20203;-67
2021/08/05 11:15:46;;;;;;;0.90;0.90;;;;;;;21.73;48.96;101067.59;5007034;28;20742;-67
2021/08/05 11:18:25;;;;;;;1.73;0.83;;;;;;;21.49;49.26;101037.53;5028589;28;20632;-68
2021/08/05 11:21:35;;;;;;;1.87;0.90;;;;;;;21.67;49.24;101068.28;5030846;28;20564;-68
2021/08/05 11:24:04;;;;;;;1.53;1.20;;;;;;;21.51;49.06;101032.75;5029509;28;20203;-67
2021/08/05 11:26:32;;;;;;;1.33;1.00;;;;;;;21.75;48.64;101065.59;5029385;28;20229;-67
2021/08/05 11:29:00;;;;;;;1.13;1.03;;;;;;;21.84;48.84;101058.25;5029243;28;20667;-69
2021/08/05 11:31:34;;;;;;;1.38;0.90;;;;;;;21.96;46.90;101071.41;5029378;28;20428;-67
2021/08/05 11:34:08;;;;;;;0.70;0.70;;;;;;;21.80;46.80;101068.66;5027986;28;20228;-67
2021/08/05 11:36:42;;;;;;;1.07;0.87;;;;;;;21.79;47.61;101064.22;5029762;28;20202;-67
2021/08/05 11:39:23;;;;;;;0.90;0.90;;;;;;;21.98;47.58;101063.88;5029415;28;20269;-67
2021/08/05 11:42:15;;;;;;;2.40;0.90;;;;;;;21.93;46.91;101066.28;5028826;28;20277;-67